createdAt,value
2022-07-29T00:00:01.677Z,97735.78
2022-07-29T00:02:29.033Z,97730.47
2022-07-29T00:04:56.175Z,97730.69
2022-07-29T00:07:23.088Z,97737.09
2022-07-29T00:09:52.644Z,97757.47
2022-07-29T00:12:25.592Z,97756.41
2022-07-29T00:14:54.273Z,97759.34
2022-07-29T00:17:21.309Z,97757.31
2022-07-29T00:19:48.313Z,97752.22
2022-07-29T00:22:15.258Z,97753.66
2022-07-29T00:24:42.450Z,97763.34
2022-07-29T00:27:10.713Z,97758.25
2022-07-29T00:29:37.626Z,97765.78
2022-07-29T00:32:04.893Z,97773.84
2022-07-29T00:35:10.737Z,97787.50
2022-07-29T00:37:37.910Z,97761.16
2022-07-29T00:40:05.702Z,97750.53
2022-07-29T00:42:43.091Z,97762.88
2022-07-29T00:45:10.797Z,97748.47
2022-07-29T00:47:37.802Z,97735.03
2022-07-29T00:50:06.764Z,97734.06
2022-07-29T00:52:34.801Z,97727.00
2022-07-29T00:55:08.036Z,97724.25
2022-07-29T00:57:37.168Z,97722.34
2022-07-29T01:00:09.863Z,97721.06
2022-07-29T01:02:37.211Z,97719.13
2022-07-29T01:05:06.226Z,97711.44
2022-07-29T01:07:34.972Z,97726.53
2022-07-29T01:10:03.343Z,97714.66
2022-07-29T01:12:35.181Z,97724.59
2022-07-29T01:15:07.336Z,97713.19
2022-07-29T01:17:39.765Z,97711.63
2022-07-29T01:20:31.751Z,97705.50
2022-07-29T01:23:22.060Z,97708.84
2022-07-29T01:26:32.534Z,97688.66
2022-07-29T01:29:13.898Z,97679.69
2022-07-29T01:31:59.444Z,97679.22
2022-07-29T01:34:36.381Z,97683.69
2022-07-29T01:37:10.927Z,97680.16
2022-07-29T01:39:39.878Z,97664.44
2022-07-29T01:42:13.910Z,97666.53
2022-07-29T01:44:49.400Z,97669.88
2022-07-29T01:47:21.753Z,97671.34
2022-07-29T01:49:52.591Z,97669.25
2022-07-29T01:52:24.587Z,97664.09
2022-07-29T01:54:56.914Z,97662.66
2022-07-29T01:57:29.101Z,97651.13
2022-07-29T02:00:00.454Z,97654.16
2022-07-29T02:02:29.523Z,97645.66
2022-07-29T02:04:58.319Z,97648.88
2022-07-29T02:07:29.458Z,97655.28
2022-07-29T02:09:58.444Z,97657.84
2022-07-29T02:12:26.698Z,97654.78
2022-07-29T02:14:55.567Z,97652.56
2022-07-29T02:17:27.717Z,97645.19
2022-07-29T02:19:59.207Z,97651.94
2022-07-29T02:22:28.025Z,97650.97
2022-07-29T02:24:56.720Z,97651.28
2022-07-29T02:27:24.891Z,97643.75
2022-07-29T02:29:54.227Z,97641.50
2022-07-29T02:32:25.697Z,97626.56
2022-07-29T02:34:53.804Z,97630.44
2022-07-29T02:37:22.239Z,97636.53
2022-07-29T02:39:52.802Z,97631.41
2022-07-29T02:42:22.092Z,97630.78
2022-07-29T02:44:49.491Z,97627.56
2022-07-29T02:47:21.791Z,97633.03
2022-07-29T02:49:59.029Z,97626.91
2022-07-29T02:52:32.847Z,97634.13
2022-07-29T02:55:03.247Z,97641.84
2022-07-29T02:57:35.180Z,97641.38
2022-07-29T03:00:09.114Z,97642.78
2022-07-29T03:02:39.442Z,97629.31
2022-07-29T03:05:10.586Z,97630.59
2022-07-29T03:07:39.662Z,97639.59
2022-07-29T03:10:11.037Z,97649.53
2022-07-29T03:12:42.499Z,97635.91
2022-07-29T03:15:10.680Z,97642.31
2022-07-29T03:17:39.001Z,97644.75
2022-07-29T03:20:08.712Z,97631.75
2022-07-29T03:22:44.489Z,97632.53
2022-07-29T03:25:12.581Z,97625.63
2022-07-29T03:27:39.574Z,97618.25
2022-07-29T03:30:08.839Z,97629.47
2022-07-29T03:32:36.597Z,97633.94
2022-07-29T03:35:04.794Z,97636.84
2022-07-29T03:37:34.530Z,97632.66
2022-07-29T03:40:04.248Z,97630.16
2022-07-29T03:42:34.315Z,97619.09
2022-07-29T03:45:06.556Z,97610.75
2022-07-29T03:47:43.581Z,97599.53
2022-07-29T03:50:20.564Z,97598.25
2022-07-29T03:52:49.340Z,97603.53
2022-07-29T03:55:16.931Z,97609.94
2022-07-29T03:57:46.729Z,97614.13
2022-07-29T04:00:14.615Z,97603.56
2022-07-29T04:02:42.197Z,97601.31
2022-07-29T04:05:13.593Z,97609.66
2022-07-29T04:07:40.646Z,97605.63
2022-07-29T04:10:10.007Z,97608.34
2022-07-29T04:12:37.054Z,97606.75
2022-07-29T04:15:04.104Z,97616.88
2022-07-29T04:17:31.268Z,97609.03
2022-07-29T04:19:58.245Z,97611.25
2022-07-29T04:22:25.296Z,97619.09
2022-07-29T04:24:54.352Z,97608.06
2022-07-29T04:27:22.813Z,97607.72
2022-07-29T04:29:57.138Z,97612.06
2022-07-29T04:32:24.845Z,97610.00
2022-07-29T04:34:51.991Z,97624.25
2022-07-29T04:37:18.900Z,97612.06
2022-07-29T04:39:45.803Z,97618.31
2022-07-29T04:42:12.700Z,97617.66
2022-07-29T04:44:43.100Z,97612.19
2022-07-29T04:47:10.513Z,97623.50
2022-07-29T04:49:39.299Z,97620.78
2022-07-29T04:52:07.096Z,97610.84
2022-07-29T04:54:34.529Z,97615.66
2022-07-29T04:57:01.683Z,97611.94
2022-07-29T04:59:28.631Z,97619.66
2022-07-29T05:01:57.067Z,97619.66
2022-07-29T05:04:24.183Z,97619.34
2022-07-29T05:06:51.195Z,97632.16
2022-07-29T05:09:18.253Z,97635.06
2022-07-29T05:11:45.221Z,97632.00
2022-07-29T05:14:12.245Z,97634.31
2022-07-29T05:16:41.150Z,97633.34
2022-07-29T05:19:13.990Z,97641.94
2022-07-29T05:21:41.454Z,97631.84
2022-07-29T05:24:09.126Z,97645.03
2022-07-29T05:26:36.258Z,97637.19
2022-07-29T05:29:03.794Z,97633.19
2022-07-29T05:31:30.821Z,97637.22
2022-07-29T05:33:57.977Z,97641.88
2022-07-29T05:36:26.708Z,97644.41
2022-07-29T05:38:53.992Z,97641.22
2022-07-29T05:41:21.192Z,97647.16
2022-07-29T05:43:48.200Z,97649.22
2022-07-29T05:46:15.350Z,97651.44
2022-07-29T05:48:42.419Z,97654.00
2022-07-29T05:51:09.601Z,97652.22
2022-07-29T05:53:38.299Z,97658.59
2022-07-29T05:56:06.514Z,97653.94
2022-07-29T05:58:33.734Z,97650.66
2022-07-29T06:01:01.653Z,97653.84
2022-07-29T06:03:29.211Z,97654.72
2022-07-29T06:05:56.371Z,97657.84
2022-07-29T06:08:23.399Z,97650.91
2022-07-29T06:10:51.793Z,97649.09
2022-07-29T06:13:18.838Z,97652.44
2022-07-29T06:15:45.964Z,97647.88
2022-07-29T06:18:14.505Z,97649.75
2022-07-29T06:20:41.674Z,97654.34
2022-07-29T06:23:08.768Z,97653.47
2022-07-29T06:25:37.873Z,97652.84
2022-07-29T06:28:07.539Z,97655.88
2022-07-29T06:30:34.770Z,97654.69
2022-07-29T06:33:03.098Z,97660.41
2022-07-29T06:35:39.671Z,97655.00
2022-07-29T06:38:25.643Z,97649.00
2022-07-29T06:41:07.106Z,97649.13
2022-07-29T06:43:42.643Z,97652.97
2022-07-29T06:46:21.586Z,97644.38
2022-07-29T06:48:49.038Z,97649.00
2022-07-29T06:51:17.464Z,97657.84
2022-07-29T06:53:59.526Z,97657.38
2022-07-29T06:56:30.364Z,97661.69
2022-07-29T06:58:58.913Z,97666.63
2022-07-29T07:01:26.032Z,97671.66
2022-07-29T07:03:53.210Z,97671.63
2022-07-29T07:06:20.868Z,97666.16
2022-07-29T07:08:47.890Z,97670.94
2022-07-29T07:11:14.952Z,97671.94
2022-07-29T07:13:42.815Z,97670.56
2022-07-29T07:16:11.376Z,97682.97
2022-07-29T07:18:38.580Z,97678.44
2022-07-29T07:21:06.740Z,97676.44
2022-07-29T07:23:34.085Z,97677.84
2022-07-29T07:26:01.120Z,97681.47
2022-07-29T07:28:28.253Z,97683.53
2022-07-29T07:30:55.730Z,97683.50
2022-07-29T07:33:26.362Z,97689.47
2022-07-29T07:35:53.700Z,97692.50
2022-07-29T07:38:21.184Z,97685.22
2022-07-29T07:40:48.581Z,97692.22
2022-07-29T07:43:15.771Z,97683.56
2022-07-29T07:45:43.110Z,97687.53
2022-07-29T07:48:11.308Z,97672.44
2022-07-29T07:50:40.252Z,97673.72
2022-07-29T07:53:07.524Z,97678.22
2022-07-29T07:55:53.430Z,97681.13
2022-07-29T07:58:22.259Z,97680.16
2022-07-29T08:00:49.551Z,97673.00
2022-07-29T08:03:17.358Z,97676.16
2022-07-29T08:05:48.587Z,97671.88
2022-07-29T08:08:15.735Z,97678.97
2022-07-29T08:10:56.844Z,97674.22
2022-07-29T08:13:26.446Z,97677.53
2022-07-29T08:16:00.892Z,97670.00
2022-07-29T08:18:29.246Z,97678.66
2022-07-29T08:20:58.545Z,97666.41
2022-07-29T08:23:32.831Z,97672.34
2022-07-29T08:26:14.231Z,97678.59
2022-07-29T08:28:46.677Z,97676.41
2022-07-29T08:31:14.927Z,97682.00
2022-07-29T08:33:42.417Z,97677.41
2022-07-29T08:36:11.442Z,97676.59
2022-07-29T08:38:38.878Z,97684.44
2022-07-29T08:41:06.175Z,97680.63
2022-07-29T08:43:36.228Z,97682.97
2022-07-29T08:46:03.356Z,97678.19
2022-07-29T08:48:30.979Z,97675.72
2022-07-29T08:50:58.794Z,97684.13
2022-07-29T08:53:29.538Z,97690.38
2022-07-29T08:55:57.149Z,97690.06
2022-07-29T08:58:25.957Z,97688.19
2022-07-29T09:00:56.162Z,97682.31
2022-07-29T09:03:26.251Z,97686.13
2022-07-29T09:05:54.293Z,97689.81
2022-07-29T09:08:22.187Z,97685.16
2022-07-29T09:11:29.698Z,97691.97
2022-07-29T09:13:58.410Z,97695.06
2022-07-29T09:16:44.070Z,97679.63
2022-07-29T09:19:22.080Z,97683.41
2022-07-29T09:22:03.126Z,97681.19
2022-07-29T09:24:42.655Z,97683.22
2022-07-29T09:27:21.120Z,97674.66
2022-07-29T09:29:57.429Z,97674.97
2022-07-29T09:32:25.077Z,97671.16
2022-07-29T09:34:56.837Z,97673.13
2022-07-29T09:37:29.573Z,97666.50
2022-07-29T09:39:56.789Z,97669.59
2022-07-29T09:42:29.896Z,97661.03
2022-07-29T09:44:58.531Z,97659.75
2022-07-29T09:47:42.815Z,97658.25
2022-07-29T09:50:09.877Z,97660.41
2022-07-29T09:52:48.020Z,97662.25
2022-07-29T09:55:18.174Z,97661.50
2022-07-29T09:57:46.292Z,97661.75
2022-07-29T10:00:16.906Z,97663.41
2022-07-29T10:02:45.783Z,97673.47
2022-07-29T10:05:22.620Z,97672.09
2022-07-29T10:07:53.892Z,97669.50
2022-07-29T10:10:27.714Z,62402.38
2022-07-29T10:12:59.735Z,97669.50
2022-07-29T10:15:33.354Z,97655.72
2022-07-29T10:18:01.489Z,97663.25
2022-07-29T10:20:30.615Z,97659.16
2022-07-29T10:22:58.277Z,97659.66
2022-07-29T10:25:26.185Z,97663.66
2022-07-29T10:27:54.671Z,97653.44
2022-07-29T10:30:25.164Z,97649.91
2022-07-29T10:33:23.566Z,97655.38
2022-07-29T10:36:04.317Z,97653.38
2022-07-29T10:38:50.223Z,97646.31
2022-07-29T10:44:29.173Z,97651.84
2022-07-29T10:46:56.882Z,97654.91
2022-07-29T10:49:28.090Z,97652.63
2022-07-29T10:52:05.825Z,97657.81
2022-07-29T10:54:44.689Z,97644.69
2022-07-29T10:57:14.622Z,97639.94
2022-07-29T10:59:43.001Z,97644.16
2022-07-29T11:02:44.750Z,97647.16
2022-07-29T11:05:15.888Z,97643.75
2022-07-29T11:08:26.486Z,97643.94
2022-07-29T11:11:37.905Z,97643.78
2022-07-29T11:14:05.396Z,97646.00
2022-07-29T11:17:06.115Z,97637.41
2022-07-29T11:19:34.841Z,97639.13
2022-07-29T11:22:08.821Z,97634.44
2022-07-29T11:24:37.115Z,97637.38
2022-07-29T11:30:04.975Z,97639.19
2022-07-29T11:32:37.933Z,97632.44
2022-07-29T11:35:19.333Z,97636.41
2022-07-29T11:38:28.804Z,97637.63
2022-07-29T11:41:25.520Z,97633.22
2022-07-29T11:43:56.737Z,97640.38
2022-07-29T11:46:54.097Z,97640.59
2022-07-29T11:49:32.197Z,97632.88
2022-07-29T11:52:03.156Z,97629.38
2022-07-29T11:54:38.717Z,97625.25
2022-07-29T11:57:22.483Z,97628.06
2022-07-29T11:59:50.791Z,97619.56
2022-07-29T12:02:36.507Z,97616.00
2022-07-29T12:05:10.674Z,97627.97
2022-07-29T12:07:03.261Z,97634.19
2022-07-29T12:07:41.275Z,97626.50
2022-07-29T12:10:20.001Z,97618.75
2022-07-29T12:12:57.214Z,97609.72
2022-07-29T12:15:45.595Z,97612.16
2022-07-29T12:18:15.247Z,97600.03
2022-07-29T12:20:42.548Z,97600.91
2022-07-29T12:23:16.232Z,97599.75
2022-07-29T12:25:49.713Z,97585.28
2022-07-29T12:28:27.649Z,97587.72
2022-07-29T12:30:55.163Z,97589.53
2022-07-29T12:33:24.113Z,97603.91
2022-07-29T12:36:06.251Z,97585.09
2022-07-29T12:38:35.799Z,97583.16
2022-07-29T12:41:04.891Z,97582.41
2022-07-29T12:43:32.854Z,97577.69
2022-07-29T12:46:13.590Z,97580.25
2022-07-29T12:48:42.280Z,97571.41
2022-07-29T12:51:11.136Z,97576.41
2022-07-29T12:53:38.960Z,97570.88
2022-07-29T12:56:40.590Z,97572.56
2022-07-29T12:59:14.455Z,97570.94
2022-07-29T13:01:41.590Z,97564.09
2022-07-29T13:04:08.664Z,97565.88
2022-07-29T13:06:39.201Z,97570.59
2022-07-29T13:09:11.730Z,97569.53
2022-07-29T13:11:47.913Z,97578.09
2022-07-29T13:14:30.771Z,97571.00
2022-07-29T13:17:06.307Z,97579.75
2022-07-29T13:19:35.891Z,97580.16
2022-07-29T13:22:03.000Z,97574.22
2022-07-29T13:24:30.145Z,97573.41
2022-07-29T13:26:58.669Z,97570.66
2022-07-29T13:29:31.340Z,97570.25
2022-07-29T13:31:59.485Z,97577.78
2022-07-29T13:34:27.134Z,97579.34
2022-07-29T13:36:55.390Z,97578.13
2022-07-29T13:39:22.555Z,97577.72
2022-07-29T13:41:49.611Z,97578.47
2022-07-29T13:44:19.577Z,97577.22
2022-07-29T13:46:46.586Z,97579.94
2022-07-29T13:49:14.227Z,97576.38
2022-07-29T13:51:42.313Z,97586.22
2022-07-29T13:54:09.243Z,97582.59
2022-07-29T13:56:36.352Z,97595.63
2022-07-29T13:59:03.314Z,97599.97
2022-07-29T14:01:32.018Z,97600.31
2022-07-29T14:03:59.758Z,97591.03
2022-07-29T14:06:28.158Z,97591.69
2022-07-29T14:08:57.157Z,97587.16
2022-07-29T14:11:24.522Z,97597.19
2022-07-29T14:13:52.320Z,97616.28
2022-07-29T14:16:19.584Z,62402.38
2022-07-29T14:18:48.363Z,97637.28
2022-07-29T14:21:16.174Z,97631.44
2022-07-29T14:23:43.835Z,97631.44
2022-07-29T14:26:20.822Z,97635.78
2022-07-29T14:28:49.297Z,62402.38
2022-07-29T14:31:16.784Z,97646.00
2022-07-29T14:33:44.091Z,97646.00
2022-07-29T14:36:15.483Z,97648.53
2022-07-29T14:38:42.770Z,97649.78
2022-07-29T14:41:09.904Z,97644.19
2022-07-29T14:43:38.001Z,97649.16
2022-07-29T14:46:08.564Z,97643.06
2022-07-29T14:48:37.277Z,97644.97
2022-07-29T14:51:05.903Z,97623.28
2022-07-29T14:53:35.395Z,97626.13
2022-07-29T14:56:21.174Z,97617.88
2022-07-29T14:58:52.142Z,97615.69
2022-07-29T15:01:20.691Z,97610.63
2022-07-29T15:03:48.601Z,62402.38
2022-07-29T15:06:16.271Z,62402.38
2022-07-29T15:08:45.062Z,62402.38
2022-07-29T15:11:12.264Z,62402.38
2022-07-29T15:13:40.086Z,62402.38
2022-07-29T15:16:09.751Z,62402.38
2022-07-29T15:18:39.932Z,62402.38
2022-07-29T15:21:08.817Z,62402.38
2022-07-29T15:23:37.486Z,62402.38
2022-07-29T15:26:06.827Z,62402.38
2022-07-29T15:28:34.624Z,62402.38
2022-07-29T15:31:02.496Z,62402.38
2022-07-29T15:33:29.976Z,62402.38
2022-07-29T15:35:58.047Z,62402.38
2022-07-29T15:38:29.008Z,62402.38
2022-07-29T15:40:56.447Z,62402.38
2022-07-29T15:43:25.242Z,62402.38
2022-07-29T15:46:12.447Z,62402.38
2022-07-29T15:48:41.038Z,62402.38
2022-07-29T15:51:08.629Z,62402.38
2022-07-29T15:53:35.849Z,62402.38
2022-07-29T15:56:03.291Z,62402.38
2022-07-29T15:58:32.918Z,62402.38
2022-07-29T16:01:00.379Z,62402.38
2022-07-29T16:03:28.156Z,62402.38
2022-07-29T16:05:55.390Z,62402.38
2022-07-29T16:08:22.844Z,62402.38
2022-07-29T16:10:50.327Z,62402.38
2022-07-29T16:13:18.859Z,62402.38
2022-07-29T16:16:02.784Z,62402.38
2022-07-29T16:18:30.730Z,62402.38
2022-07-29T16:20:58.556Z,62402.38
2022-07-29T16:23:25.824Z,62402.38
2022-07-29T16:26:01.278Z,62402.38
2022-07-29T16:28:29.383Z,62402.38
2022-07-29T16:30:58.041Z,62402.38
2022-07-29T16:33:25.412Z,62402.38
2022-07-29T16:35:53.259Z,62402.38
2022-07-29T16:38:21.259Z,62402.38
2022-07-29T16:40:49.373Z,62402.38
2022-07-29T16:43:17.127Z,62402.38
2022-07-29T16:45:46.418Z,62402.38
2022-07-29T16:48:18.069Z,62402.38
2022-07-29T16:50:46.425Z,62402.38
2022-07-29T16:53:14.410Z,62402.38
2022-07-29T16:55:42.792Z,62402.38
2022-07-29T16:58:10.616Z,62402.38
2022-07-29T17:00:39.252Z,62402.38
2022-07-29T17:03:07.908Z,62402.38
2022-07-29T17:05:52.077Z,62402.38
2022-07-29T17:08:22.919Z,62402.38
2022-07-29T17:10:50.140Z,62402.38
2022-07-29T17:13:17.158Z,62402.38
2022-07-29T17:15:44.297Z,62402.38
2022-07-29T17:18:12.347Z,62402.38
2022-07-29T17:20:41.774Z,62402.38
2022-07-29T17:23:09.143Z,62402.38
2022-07-29T17:25:36.508Z,62402.38
2022-07-29T17:28:03.822Z,62402.38
2022-07-29T17:30:30.984Z,62402.38
2022-07-29T17:32:58.112Z,62402.38
2022-07-29T17:35:43.817Z,62402.38
2022-07-29T17:38:12.347Z,62402.38
2022-07-29T17:40:39.525Z,62402.38
2022-07-29T17:43:09.270Z,62402.38
2022-07-29T17:45:49.643Z,62402.38
2022-07-29T17:48:18.060Z,62402.38
2022-07-29T17:50:46.287Z,62402.38
2022-07-29T17:53:16.882Z,62402.38
2022-07-29T17:55:45.494Z,62402.38
2022-07-29T17:58:12.871Z,62402.38
2022-07-29T18:00:40.156Z,62402.38
2022-07-29T18:03:07.387Z,62402.38
2022-07-29T18:05:35.095Z,62402.38
2022-07-29T18:08:02.272Z,62402.38
2022-07-29T18:10:30.822Z,62402.38
2022-07-29T18:12:58.007Z,62402.38
2022-07-29T18:15:25.151Z,62402.38
2022-07-29T18:17:57.362Z,62402.38
2022-07-29T18:20:25.307Z,62402.38
2022-07-29T18:22:52.817Z,62402.38
2022-07-29T18:25:19.993Z,62402.38
2022-07-29T18:27:48.327Z,62402.38
2022-07-29T18:30:15.597Z,62402.38
2022-07-29T18:32:59.078Z,62402.38
2022-07-29T18:35:30.913Z,62402.38
2022-07-29T18:38:01.346Z,62402.38
2022-07-29T18:40:29.917Z,62402.38
2022-07-29T18:42:58.405Z,62402.38
2022-07-29T18:45:28.310Z,62402.38
2022-07-29T18:47:55.818Z,62402.38
2022-07-29T18:50:28.871Z,62402.38
2022-07-29T18:52:58.517Z,62402.38
2022-07-29T18:55:26.339Z,62402.38
2022-07-29T18:57:55.997Z,62402.38
2022-07-29T19:00:27.102Z,62402.38
2022-07-29T19:02:54.355Z,62402.38
2022-07-29T19:05:23.108Z,62402.38
2022-07-29T19:07:50.395Z,62402.38
2022-07-29T19:10:17.810Z,62402.38
2022-07-29T19:12:44.886Z,62402.38
2022-07-29T19:15:12.088Z,62402.38
2022-07-29T19:17:41.151Z,62402.38
2022-07-29T19:20:08.916Z,62402.38
2022-07-29T19:22:36.043Z,62402.38
2022-07-29T19:25:03.468Z,62402.38
2022-07-29T19:27:30.619Z,62402.38
2022-07-29T19:29:59.473Z,62402.38
2022-07-29T19:32:26.844Z,62402.38
2022-07-29T19:35:15.575Z,62402.38
2022-07-29T19:37:43.052Z,62402.38
2022-07-29T19:40:12.317Z,62402.38
2022-07-29T19:42:39.495Z,62402.38
2022-07-29T19:45:07.651Z,62402.38
2022-07-29T19:47:35.268Z,62402.38
2022-07-29T19:50:04.294Z,62402.38
2022-07-29T19:52:31.488Z,62402.38
2022-07-29T19:54:58.797Z,62402.38
2022-07-29T19:57:26.295Z,62402.38
2022-07-29T19:59:54.312Z,62402.38
2022-07-29T20:02:21.638Z,62402.38
2022-07-29T20:04:48.814Z,62402.38
2022-07-29T20:07:17.305Z,62402.38
2022-07-29T20:09:46.251Z,62402.38
2022-07-29T20:12:13.577Z,62402.38
2022-07-29T20:14:41.109Z,62402.38
2022-07-29T20:17:08.474Z,62402.38
2022-07-29T20:19:36.236Z,62402.38
2022-07-29T20:22:03.597Z,62402.38
2022-07-29T20:24:32.050Z,62402.38
2022-07-29T20:26:59.289Z,62402.38
2022-07-29T20:29:26.512Z,62402.38
2022-07-29T20:31:56.577Z,62402.38
2022-07-29T20:34:25.073Z,62402.38
2022-07-29T20:36:53.274Z,62402.38
2022-07-29T20:39:21.823Z,62402.38
2022-07-29T20:41:50.817Z,62402.38
2022-07-29T20:44:19.785Z,62402.38
2022-07-29T20:46:48.863Z,62402.38
2022-07-29T20:49:16.281Z,62402.38
2022-07-29T20:51:44.181Z,62402.38
2022-07-29T20:54:11.997Z,62402.38
2022-07-29T20:56:39.234Z,62402.38
2022-07-29T20:59:07.961Z,62402.38
2022-07-29T21:01:35.460Z,62402.38
2022-07-29T21:04:03.220Z,62402.38
2022-07-29T21:06:30.829Z,62402.38
2022-07-29T21:08:59.798Z,62402.38
2022-07-29T21:11:43.458Z,62402.38
2022-07-29T21:14:30.807Z,62402.38
2022-07-29T21:17:07.536Z,62402.38
2022-07-29T21:19:34.727Z,62402.38
2022-07-29T21:22:01.867Z,62402.38
2022-07-29T21:24:29.303Z,62402.38
2022-07-29T21:27:21.172Z,62402.38
2022-07-29T21:29:50.249Z,62402.38
2022-07-29T21:32:29.940Z,62402.38
2022-07-29T21:34:57.793Z,62402.38
2022-07-29T21:37:25.031Z,62402.38
2022-07-29T21:39:52.138Z,62402.38
2022-07-29T21:42:19.944Z,62402.38
2022-07-29T21:44:47.315Z,62402.38
2022-07-29T21:47:16.015Z,62402.38
2022-07-29T21:49:43.146Z,62402.38
2022-07-29T21:52:10.322Z,62402.38
2022-07-29T21:54:38.605Z,62402.38
2022-07-29T21:57:06.081Z,62402.38
2022-07-29T21:59:33.189Z,62402.38
2022-07-29T22:02:01.851Z,62402.38
2022-07-29T22:04:30.637Z,62402.38
2022-07-29T22:06:58.488Z,62402.38
2022-07-29T22:09:25.917Z,62402.38
2022-07-29T22:11:53.070Z,62402.38
2022-07-29T22:14:20.469Z,62402.38
2022-07-29T22:16:48.349Z,62402.38
2022-07-29T22:19:15.653Z,62402.38
2022-07-29T22:21:44.946Z,62402.38
2022-07-29T22:24:12.296Z,62402.38
2022-07-29T22:26:40.436Z,62402.38
2022-07-29T22:29:07.839Z,62402.38
2022-07-29T22:31:34.853Z,62402.38
2022-07-29T22:34:01.776Z,62402.38
2022-07-29T22:36:28.791Z,62402.38
2022-07-29T22:38:57.169Z,62402.38
2022-07-29T22:41:24.210Z,62402.38
2022-07-29T22:43:51.131Z,62402.38
2022-07-29T22:46:18.272Z,62402.38
2022-07-29T22:48:45.323Z,62402.38
2022-07-29T22:51:12.297Z,62402.38
2022-07-29T22:53:39.347Z,62402.38
2022-07-29T22:56:07.864Z,62402.38
2022-07-29T22:58:34.991Z,62402.38
2022-07-29T23:01:02.103Z,62402.38
2022-07-29T23:03:29.152Z,62402.38
2022-07-29T23:05:56.159Z,62402.38
2022-07-29T23:08:23.111Z,62402.38
2022-07-29T23:10:50.029Z,62402.38
2022-07-29T23:13:18.385Z,62402.38
2022-07-29T23:15:45.369Z,62402.38
2022-07-29T23:18:12.495Z,62402.38
2022-07-29T23:20:39.611Z,62402.38
2022-07-29T23:23:06.567Z,62402.38
2022-07-29T23:25:37.610Z,62402.38
2022-07-29T23:28:05.246Z,62402.38
2022-07-29T23:30:33.694Z,62402.38
2022-07-29T23:33:05.650Z,62402.38
2022-07-29T23:35:32.862Z,62402.38
2022-07-29T23:38:07.116Z,62402.38
2022-07-29T23:40:39.177Z,62402.38
2022-07-29T23:43:08.657Z,62402.38
2022-07-29T23:45:42.565Z,62402.38
2022-07-29T23:48:11.536Z,62402.38
2022-07-29T23:50:40.175Z,62402.38
2022-07-29T23:53:07.297Z,62402.38
2022-07-29T23:55:36.501Z,62402.38
2022-07-29T23:58:05.980Z,62402.38
